createdAt,value
2018-08-17T00:01:17.796Z,100919.83
2018-08-17T00:03:50.951Z,100917.42
2018-08-17T00:06:22.446Z,100914.79
2018-08-17T00:08:55.585Z,100916.27
2018-08-17T00:11:25.360Z,100917.81
2018-08-17T00:13:55.369Z,100921.55
2018-08-17T00:16:26.779Z,100920.61
2018-08-17T00:18:56.216Z,100913.02
2018-08-17T00:21:26.733Z,100901.17
2018-08-17T00:23:56.757Z,100898.22
2018-08-17T00:26:26.924Z,100895.22
2018-08-17T00:28:57.498Z,100887.16
2018-08-17T00:31:28.077Z,100888.91
2018-08-17T00:33:59.414Z,100887.16
2018-08-17T00:36:30.590Z,100886.92
2018-08-17T00:39:00.346Z,100884.26
2018-08-17T00:41:30.439Z,100884.84
2018-08-17T00:44:03.003Z,100891.70
2018-08-17T00:46:32.711Z,100892.84
2018-08-17T00:49:02.261Z,100893.67
2018-08-17T00:51:32.008Z,100893.41
2018-08-17T00:57:14.669Z,100900.29
2018-08-17T00:59:45.979Z,100906.94
2018-08-17T01:02:16.639Z,100905.90
2018-08-17T01:04:46.574Z,100909.73
2018-08-17T01:07:18.176Z,100907.65
2018-08-17T01:09:50.745Z,100914.52
2018-08-17T01:12:21.342Z,100915.48
2018-08-17T01:14:51.293Z,100914.48
2018-08-17T01:17:21.987Z,100917.05
2018-08-17T01:19:52.668Z,100914.66
2018-08-17T01:22:33.077Z,100919.58
2018-08-17T01:25:03.251Z,100939.92
2018-08-17T01:27:34.553Z,100955.73
2018-08-17T01:30:08.596Z,100963.19
2018-08-17T01:32:38.816Z,100978.69
2018-08-17T01:35:08.670Z,100990.11
2018-08-17T01:37:38.342Z,100992.89
2018-08-17T01:40:08.468Z,100991.62
2018-08-17T01:42:38.289Z,100992.98
2018-08-17T01:45:13.914Z,100994.98
2018-08-17T01:47:43.786Z,100998.73
2018-08-17T01:50:13.176Z,101008.33
2018-08-17T01:52:43.919Z,101006.78
2018-08-17T01:55:16.454Z,101007.91
2018-08-17T01:57:45.833Z,101007.33
2018-08-17T02:00:17.795Z,101001.70
2018-08-17T02:02:47.378Z,101003.58
2018-08-17T02:05:21.105Z,101004.06
2018-08-17T02:07:52.280Z,101008.29
2018-08-17T02:10:21.865Z,101018.30
2018-08-17T02:12:51.488Z,101028.62
2018-08-17T02:15:25.781Z,101024.41
2018-08-17T02:17:55.628Z,101027.88
2018-08-17T02:20:25.609Z,101027.13
2018-08-17T02:22:55.240Z,101044.83
2018-08-17T02:25:27.834Z,101060.84
2018-08-17T02:27:59.716Z,101066.66
2018-08-17T02:30:32.319Z,101063.12
2018-08-17T02:33:01.976Z,101066.20
2018-08-17T02:35:34.344Z,101070.42
2018-08-17T02:38:04.263Z,101076.25
2018-08-17T02:40:34.053Z,101071.88
2018-08-17T02:43:03.735Z,101069.34
2018-08-17T02:45:41.373Z,101066.23
2018-08-17T02:48:13.135Z,101059.30
2018-08-17T02:50:43.797Z,101064.64
2018-08-17T02:53:13.220Z,101066.91
2018-08-17T02:55:44.388Z,101060.91
2018-08-17T03:01:00.053Z,101046.27
2018-08-17T03:03:33.846Z,101040.53
2018-08-17T03:06:03.866Z,101049.05
2018-08-17T03:08:34.009Z,101050.05
2018-08-17T03:11:04.341Z,101049.63
2018-08-17T03:13:38.963Z,101055.77
2018-08-17T03:16:08.624Z,101045.38
2018-08-17T03:18:38.184Z,101040.87
2018-08-17T03:21:08.132Z,101038.17
2018-08-17T03:23:37.701Z,101039.95
2018-08-17T03:26:08.147Z,101043.83
2018-08-17T03:28:37.875Z,101045.42
2018-08-17T03:31:07.949Z,101044.69
2018-08-17T03:33:37.561Z,101047.13
2018-08-17T03:36:08.204Z,101040.22
2018-08-17T03:38:37.781Z,101034.73
2018-08-17T03:41:07.472Z,101022.17
2018-08-17T03:43:37.961Z,101016.45
2018-08-17T03:46:08.561Z,101021.31
2018-08-17T03:48:38.984Z,101020.15
2018-08-17T03:51:08.838Z,101012.36
2018-08-17T03:53:39.451Z,101012.40
2018-08-17T03:56:09.466Z,101016.27
2018-08-17T03:58:39.283Z,101021.61
2018-08-17T04:01:09.039Z,101031.67
2018-08-17T04:03:38.973Z,101038.58
2018-08-17T04:06:08.568Z,101056.67
2018-08-17T04:08:38.680Z,101083.55
2018-08-17T04:11:10.635Z,101106.27
2018-08-17T04:13:40.529Z,101114.97
2018-08-17T04:16:10.244Z,101054.08
2018-08-17T04:18:44.729Z,101126.13
2018-08-17T04:21:16.644Z,101130.19
2018-08-17T04:23:46.926Z,101123.75
2018-08-17T04:26:17.865Z,101114.27
2018-08-17T04:28:47.517Z,101118.69
2018-08-17T04:31:20.044Z,101134.67
2018-08-17T04:33:50.597Z,101144.23
2018-08-17T04:36:20.498Z,101157.46
2018-08-17T04:38:50.887Z,101172.75
2018-08-17T04:41:21.053Z,101178.61
2018-08-17T04:43:51.537Z,101184.20
2018-08-17T04:46:22.343Z,101191.45
2018-08-17T04:48:58.913Z,101189.16
2018-08-17T04:51:31.619Z,101184.75
2018-08-17T04:54:06.012Z,101171.38
2018-08-17T04:56:35.742Z,101163.27
2018-08-17T04:59:05.535Z,101147.47
2018-08-17T05:01:35.110Z,101159.70
2018-08-17T05:04:04.549Z,101058.55
2018-08-17T05:06:34.370Z,101151.66
2018-08-17T05:09:04.239Z,101153.02
2018-08-17T05:11:40.975Z,101158.50
2018-08-17T05:14:13.107Z,101140.06
2018-08-17T05:16:44.472Z,101143.39
2018-08-17T05:19:13.942Z,101159.90
2018-08-17T05:21:43.787Z,101176.80
2018-08-17T05:24:16.426Z,101181.61
2018-08-17T05:26:46.840Z,101193.43
2018-08-17T05:29:16.633Z,101197.01
2018-08-17T05:31:48.324Z,101185.30
2018-08-17T05:34:18.715Z,101201.62
2018-08-17T05:36:48.836Z,101200.67
2018-08-17T05:39:18.346Z,101200.13
2018-08-17T05:41:48.076Z,101202.95
2018-08-17T05:44:18.686Z,101208.69
2018-08-17T05:46:48.697Z,101214.20
2018-08-17T05:49:19.526Z,101233.26
2018-08-17T05:51:48.817Z,101263.17
2018-08-17T05:54:20.294Z,101272.55
2018-08-17T05:56:49.842Z,101276.13
2018-08-17T05:59:19.276Z,101267.78
2018-08-17T06:01:50.797Z,101258.36
2018-08-17T06:04:21.196Z,101249.36
2018-08-17T06:06:53.379Z,101250.80
2018-08-17T06:09:23.811Z,101246.84
2018-08-17T06:11:54.584Z,101157.64
2018-08-17T06:14:26.004Z,101247.20
2018-08-17T06:16:57.521Z,101242.00
2018-08-17T06:19:27.717Z,101229.52
2018-08-17T06:21:57.729Z,101213.85
2018-08-17T06:24:28.418Z,101219.98
2018-08-17T06:26:59.760Z,101232.38
2018-08-17T06:29:30.676Z,101223.37
2018-08-17T06:32:01.490Z,101197.32
2018-08-17T06:34:32.180Z,101201.51
2018-08-17T06:37:01.453Z,101209.11
2018-08-17T06:39:33.929Z,101229.23
2018-08-17T06:42:03.747Z,101231.80
2018-08-17T06:44:34.214Z,101238.09
2018-08-17T06:47:08.121Z,101241.52
2018-08-17T06:49:38.967Z,101237.26
2018-08-17T06:52:11.145Z,101231.94
2018-08-17T06:54:44.229Z,101223.87
2018-08-17T06:57:17.914Z,101223.53
2018-08-17T06:59:49.301Z,101213.69
2018-08-17T07:02:22.044Z,101203.89
2018-08-17T07:04:52.599Z,101201.91
2018-08-17T07:07:24.675Z,101199.59
2018-08-17T07:09:59.695Z,101209.91
2018-08-17T07:12:30.318Z,101221.23
2018-08-17T07:15:07.441Z,101212.99
2018-08-17T07:17:37.778Z,101210.59
2018-08-17T07:20:11.353Z,101212.61
2018-08-17T07:22:42.675Z,101221.38
2018-08-17T07:25:13.859Z,101231.77
2018-08-17T07:27:51.451Z,101223.05
2018-08-17T07:30:24.352Z,101232.70
2018-08-17T07:32:55.750Z,101221.47
2018-08-17T07:35:27.356Z,101228.11
2018-08-17T07:37:58.660Z,101217.21
2018-08-17T07:40:31.423Z,101218.88
2018-08-17T07:43:10.130Z,101220.19
2018-08-17T07:45:41.582Z,101225.83
2018-08-17T07:48:14.220Z,101212.66
2018-08-17T07:50:44.915Z,101226.97
2018-08-17T07:53:14.457Z,101233.23
2018-08-17T07:55:44.185Z,101242.09
2018-08-17T07:58:16.339Z,101250.83
2018-08-17T08:00:47.046Z,101262.14
2018-08-17T08:03:18.809Z,101260.62
2018-08-17T08:05:52.325Z,101260.62
2018-08-17T08:08:30.664Z,101270.80
2018-08-17T08:11:02.656Z,101275.56
2018-08-17T08:13:34.180Z,101272.84
2018-08-17T08:16:14.330Z,101278.72
2018-08-17T08:18:44.573Z,101284.23
2018-08-17T08:21:14.161Z,101293.89
2018-08-17T08:23:44.432Z,101297.54
2018-08-17T08:26:15.100Z,101298.83
2018-08-17T08:28:46.653Z,101305.59
2018-08-17T08:31:17.154Z,101307.03
2018-08-17T08:33:46.608Z,101308.08
2018-08-17T08:36:17.421Z,101316.89
2018-08-17T08:38:50.302Z,101315.68
2018-08-17T08:41:20.629Z,101314.59
2018-08-17T08:43:52.764Z,101317.72
2018-08-17T08:46:27.215Z,101319.55
2018-08-17T08:48:56.520Z,101323.70
2018-08-17T08:51:27.682Z,101318.58
2018-08-17T08:53:58.477Z,101333.74
2018-08-17T08:56:29.498Z,101334.28
2018-08-17T08:59:02.937Z,101340.75
2018-08-17T09:01:34.966Z,101347.64
2018-08-17T09:04:05.925Z,101352.22
2018-08-17T09:06:39.351Z,101351.38
2018-08-17T09:09:09.697Z,101352.25
2018-08-17T09:11:39.914Z,101359.11
2018-08-17T09:14:10.516Z,101365.73
2018-08-17T09:16:41.695Z,101365.19
2018-08-17T09:19:12.737Z,101370.36
2018-08-17T09:21:43.381Z,101372.23
2018-08-17T09:24:13.894Z,101374.30
2018-08-17T09:26:46.152Z,101374.30
2018-08-17T09:29:19.901Z,101369.39
2018-08-17T09:31:53.251Z,101370.94
2018-08-17T09:37:06.189Z,101376.61
2018-08-17T09:39:39.406Z,101376.25
2018-08-17T09:42:09.003Z,101380.16
2018-08-17T09:44:39.423Z,101375.59
2018-08-17T09:47:12.708Z,101370.17
2018-08-17T09:49:43.123Z,101372.30
2018-08-17T09:52:12.990Z,101377.02
2018-08-17T09:54:43.384Z,101377.09
2018-08-17T09:57:14.684Z,101377.53
2018-08-17T09:59:46.450Z,101381.59
2018-08-17T10:02:23.531Z,101382.95
2018-08-17T10:05:00.327Z,101377.95
2018-08-17T10:07:35.595Z,101335.18
2018-08-17T10:10:27.453Z,101381.12
2018-08-17T10:12:57.764Z,101379.66
2018-08-17T10:15:38.184Z,101375.76
2018-08-17T10:18:08.461Z,101384.94
2018-08-17T10:20:38.483Z,101389.09
2018-08-17T10:23:15.330Z,101394.83
2018-08-17T10:25:47.018Z,101392.05
2018-08-17T10:28:18.803Z,101383.44
2018-08-17T10:30:58.242Z,101384.36
2018-08-17T10:33:30.695Z,101389.10
2018-08-17T10:36:04.652Z,101385.66
2018-08-17T10:38:34.278Z,101382.79
2018-08-17T10:41:04.178Z,101384.67
2018-08-17T10:43:36.073Z,101384.53
2018-08-17T10:46:11.385Z,101379.70
2018-08-17T10:48:43.566Z,101389.42
2018-08-17T10:51:13.829Z,101392.70
2018-08-17T10:53:48.395Z,101389.54
2018-08-17T10:56:21.414Z,101391.53
2018-08-17T10:58:51.745Z,101399.55
2018-08-17T11:01:22.614Z,101397.05
2018-08-17T11:03:56.114Z,101393.17
2018-08-17T11:06:26.593Z,101400.63
2018-08-17T11:09:00.068Z,101396.44
2018-08-17T11:11:37.914Z,101405.03
2018-08-17T11:14:17.707Z,101398.72
2018-08-17T11:19:33.622Z,101412.41
2018-08-17T11:22:08.111Z,101415.28
2018-08-17T11:24:40.825Z,101414.95
2018-08-17T11:27:10.478Z,101419.75
2018-08-17T11:29:43.518Z,101417.03
2018-08-17T11:32:16.114Z,101423.41
2018-08-17T11:34:58.765Z,101420.81
2018-08-17T11:37:28.447Z,101424.24
2018-08-17T11:40:04.477Z,101426.45
2018-08-17T11:42:40.443Z,101434.02
2018-08-17T11:45:31.324Z,101432.77
2018-08-17T11:48:03.065Z,101436.29
2018-08-17T11:50:40.890Z,101441.49
2018-08-17T11:53:10.409Z,101438.68
2018-08-17T11:55:40.449Z,101440.33
2018-08-17T11:58:09.765Z,101444.05
2018-08-17T12:06:17.821Z,101448.52
2018-08-17T12:08:50.967Z,101445.70
2018-08-17T12:14:23.635Z,101443.41
2018-08-17T12:17:01.348Z,101448.78
2018-08-17T12:19:33.943Z,101450.45
2018-08-17T12:22:07.818Z,101447.18
2018-08-17T12:24:40.063Z,101451.86
2018-08-17T12:27:10.961Z,101443.19
2018-08-17T12:29:42.869Z,101441.74
2018-08-17T12:32:27.224Z,101441.77
2018-08-17T12:34:58.282Z,101352.95
2018-08-17T12:37:29.303Z,101446.69
2018-08-17T12:40:12.832Z,101444.05
2018-08-17T12:42:44.111Z,101449.39
2018-08-17T12:45:20.250Z,101442.73
2018-08-17T12:47:50.553Z,101442.40
2018-08-17T12:50:30.615Z,101440.36
2018-08-17T12:53:07.513Z,101451.00
2018-08-17T12:55:38.855Z,101449.09
2018-08-17T12:58:23.371Z,101409.80
2018-08-17T13:00:55.396Z,101439.25
2018-08-17T13:03:26.851Z,101444.00
2018-08-17T13:05:59.294Z,101441.32
2018-08-17T13:08:28.800Z,101444.55
2018-08-17T13:11:00.084Z,101450.02
2018-08-17T13:13:31.673Z,101449.55
2018-08-17T13:16:13.388Z,101444.52
2018-08-17T13:18:44.247Z,101447.56
2018-08-17T13:21:14.377Z,101446.87
2018-08-17T13:23:43.988Z,101448.55
2018-08-17T13:26:16.339Z,101448.74
2018-08-17T13:28:47.292Z,101416.09
2018-08-17T13:31:19.796Z,101456.19
2018-08-17T13:33:50.804Z,101448.10
2018-08-17T13:36:22.433Z,101444.42
2018-08-17T13:38:53.024Z,101441.88
2018-08-17T13:41:24.515Z,101439.52
2018-08-17T13:43:55.739Z,101436.86
2018-08-17T13:46:26.081Z,101441.42
2018-08-17T13:49:17.392Z,101437.19
2018-08-17T13:51:56.985Z,101436.11
2018-08-17T13:54:29.285Z,101434.36
2018-08-17T13:57:02.628Z,101430.38
2018-08-17T13:59:44.446Z,101431.88
2018-08-17T14:02:15.861Z,101433.02
2018-08-17T14:04:46.161Z,101425.44
2018-08-17T14:07:17.227Z,101433.52
2018-08-17T14:09:48.335Z,101432.14
2018-08-17T14:12:24.768Z,101433.95
2018-08-17T14:14:54.496Z,101424.63
2018-08-17T14:17:24.891Z,101426.23
2018-08-17T14:19:57.901Z,101428.42
2018-08-17T14:22:28.459Z,101431.41
2018-08-17T14:24:58.943Z,101430.58
2018-08-17T14:27:28.953Z,101435.79
2018-08-17T14:30:19.712Z,101439.88
2018-08-17T14:32:51.919Z,101423.83
2018-08-17T14:35:22.625Z,101427.00
2018-08-17T14:37:56.067Z,101432.98
2018-08-17T14:40:27.335Z,101424.63
2018-08-17T14:42:59.132Z,101426.24
2018-08-17T14:45:28.780Z,101426.42
2018-08-17T14:47:59.033Z,101429.42
2018-08-17T14:50:29.979Z,101420.44
2018-08-17T14:53:03.183Z,101425.41
2018-08-17T14:55:32.760Z,101425.59
2018-08-17T14:58:03.606Z,101429.41
2018-08-17T15:00:38.027Z,101428.47
2018-08-17T15:03:13.392Z,101428.91
2018-08-17T15:05:43.736Z,101426.28
2018-08-17T15:08:13.112Z,101412.30
2018-08-17T15:10:42.427Z,101415.39
2018-08-17T15:13:15.080Z,101422.48
2018-08-17T15:15:47.673Z,101420.22
2018-08-17T15:18:26.878Z,101423.08
2018-08-17T15:21:00.391Z,101422.17
2018-08-17T15:23:35.424Z,101417.55
2018-08-17T15:26:10.582Z,101415.73
2018-08-17T15:28:42.535Z,101410.66
2018-08-17T15:31:17.190Z,101406.32
2018-08-17T15:33:51.961Z,101406.11
2018-08-17T15:39:04.457Z,101401.23
2018-08-17T15:41:36.631Z,101405.11
2018-08-17T15:44:13.886Z,101404.29
2018-08-17T15:46:43.835Z,101407.83
2018-08-17T15:49:20.613Z,101404.49
2018-08-17T15:51:51.930Z,101401.30
2018-08-17T15:54:25.533Z,101400.88
2018-08-17T15:56:55.908Z,101404.67
2018-08-17T15:59:25.867Z,101403.70
2018-08-17T16:01:56.952Z,101407.39
2018-08-17T16:04:51.149Z,101408.32
2018-08-17T16:07:22.254Z,101408.47
2018-08-17T16:09:58.281Z,101411.79
2018-08-17T16:12:29.719Z,101406.23
2018-08-17T16:15:00.587Z,101407.80
2018-08-17T16:17:30.871Z,101406.97
2018-08-17T16:20:01.391Z,101411.61
2018-08-17T16:22:31.244Z,101422.53
2018-08-17T16:25:03.215Z,101419.77
2018-08-17T16:27:34.952Z,101412.58
2018-08-17T16:30:13.657Z,101417.95
2018-08-17T16:32:44.614Z,101421.25
2018-08-17T16:35:18.003Z,101420.97
2018-08-17T16:37:55.952Z,101424.17
2018-08-17T16:40:25.672Z,101427.11
2018-08-17T16:43:00.547Z,101428.81
2018-08-17T16:45:31.035Z,101427.47
2018-08-17T16:48:13.549Z,101428.23
2018-08-17T16:50:46.371Z,101423.48
2018-08-17T16:53:23.760Z,101423.37
2018-08-17T16:55:56.703Z,101429.98
2018-08-17T16:58:29.604Z,101421.99
2018-08-17T17:01:00.726Z,101427.97
2018-08-17T17:03:31.144Z,101424.34
2018-08-17T17:06:08.907Z,101427.34
2018-08-17T17:08:39.618Z,101429.25
2018-08-17T17:11:10.655Z,101430.59
2018-08-17T17:13:44.795Z,101435.89
2018-08-17T17:16:16.273Z,101432.44
2018-08-17T17:18:46.881Z,101440.30
2018-08-17T17:21:16.313Z,101432.51
2018-08-17T17:23:53.598Z,101439.14
2018-08-17T17:26:26.198Z,101441.55
2018-08-17T17:28:58.764Z,101434.71
2018-08-17T17:31:29.322Z,101432.70
2018-08-17T17:34:04.084Z,101434.69
2018-08-17T17:36:36.600Z,101427.89
2018-08-17T17:42:03.809Z,101391.45
2018-08-17T17:44:36.761Z,101435.73
2018-08-17T17:47:07.298Z,101442.61
2018-08-17T17:49:39.258Z,101428.25
2018-08-17T17:52:10.244Z,101434.94
2018-08-17T17:54:41.711Z,101430.15
2018-08-17T17:57:14.542Z,101434.90
2018-08-17T17:59:51.741Z,101390.28
2018-08-17T18:02:23.647Z,101436.19
2018-08-17T18:04:55.259Z,101435.25
2018-08-17T18:07:34.833Z,101435.77
2018-08-17T18:10:06.358Z,101434.84
2018-08-17T18:12:38.939Z,101439.44
2018-08-17T18:15:13.935Z,101436.61
2018-08-17T18:17:43.937Z,101439.12
2018-08-17T18:20:15.939Z,101442.38
2018-08-17T18:22:45.739Z,101446.17
2018-08-17T18:25:18.764Z,101447.95
2018-08-17T18:27:51.407Z,101452.56
2018-08-17T18:30:26.244Z,101447.84
2018-08-17T18:32:56.470Z,101452.98
2018-08-17T18:35:26.836Z,101456.23
2018-08-17T18:37:58.728Z,101458.75
2018-08-17T18:40:29.361Z,101464.92
2018-08-17T18:42:59.013Z,101459.79
2018-08-17T18:45:31.056Z,101467.44
2018-08-17T18:48:03.449Z,101475.28
2018-08-17T18:50:36.002Z,101475.05
2018-08-17T18:53:05.399Z,101476.01
2018-08-17T18:55:36.031Z,101477.48
2018-08-17T18:58:06.162Z,101474.09
2018-08-17T19:00:50.221Z,101477.00
2018-08-17T19:03:20.276Z,101485.07
2018-08-17T19:06:01.415Z,101488.70
2018-08-17T19:08:34.117Z,101494.13
2018-08-17T19:11:07.200Z,101500.31
2018-08-17T19:13:37.360Z,101504.06
2018-08-17T19:16:08.720Z,101510.03
2018-08-17T19:21:32.323Z,101510.97
2018-08-17T19:24:02.330Z,101513.05
2018-08-17T19:26:35.558Z,101517.45
2018-08-17T19:29:06.263Z,101522.56
2018-08-17T19:31:40.380Z,101525.28
2018-08-17T19:34:20.303Z,101528.10
2018-08-17T19:36:56.630Z,101531.44
2018-08-17T19:39:35.532Z,101530.78
2018-08-17T19:42:15.315Z,101532.11
2018-08-17T19:44:48.311Z,101533.34
2018-08-17T19:47:30.294Z,101538.67
2018-08-17T19:50:02.046Z,101541.16
2018-08-17T19:52:33.783Z,101542.45
2018-08-17T19:55:17.761Z,101547.73
2018-08-17T19:57:51.263Z,101546.00
2018-08-17T20:00:24.433Z,101554.05
2018-08-17T20:02:58.792Z,101553.31
2018-08-17T20:05:40.800Z,101559.35
2018-08-17T20:08:17.002Z,101558.78
2018-08-17T20:10:49.225Z,101561.23
2018-08-17T20:13:23.926Z,101560.98
2018-08-17T20:15:53.781Z,101568.55
2018-08-17T20:18:27.809Z,101565.77
2018-08-17T20:20:59.543Z,101566.03
2018-08-17T20:23:30.337Z,101564.78
2018-08-17T20:26:01.444Z,101566.03
2018-08-17T20:28:35.700Z,101567.58
2018-08-17T20:31:09.889Z,101566.90
2018-08-17T20:33:42.189Z,101566.69
2018-08-17T20:36:18.528Z,101569.73
2018-08-17T20:38:52.208Z,101571.98
2018-08-17T20:41:25.596Z,101575.20
2018-08-17T20:43:59.468Z,101580.06
2018-08-17T20:46:32.744Z,101574.05
2018-08-17T20:49:05.656Z,101582.08
2018-08-17T20:51:41.054Z,101580.78
2018-08-17T20:54:12.843Z,101582.25
2018-08-17T20:56:51.053Z,101582.13
2018-08-17T20:59:26.318Z,101582.81
2018-08-17T21:01:58.022Z,101586.70
2018-08-17T21:04:30.080Z,101590.11
2018-08-17T21:07:06.974Z,101593.41
2018-08-17T21:09:37.991Z,101592.53
2018-08-17T21:12:08.444Z,101590.17
2018-08-17T21:14:39.549Z,101587.34
2018-08-17T21:17:10.692Z,101600.07
2018-08-17T21:19:42.661Z,101596.03
2018-08-17T21:22:14.793Z,101590.24
2018-08-17T21:24:46.621Z,101599.31
2018-08-17T21:27:17.530Z,101597.66
2018-08-17T21:29:48.240Z,101597.12
2018-08-17T21:32:18.799Z,101597.72
2018-08-17T21:34:52.238Z,101598.89
2018-08-17T21:37:22.274Z,101596.03
2018-08-17T21:39:51.960Z,101604.11
2018-08-17T21:42:21.294Z,101606.87
2018-08-17T21:44:51.907Z,101607.72
2018-08-17T21:47:22.630Z,101607.03
2018-08-17T21:50:05.378Z,101611.61
2018-08-17T21:52:35.812Z,101614.84
2018-08-17T21:55:10.694Z,101615.64
2018-08-17T22:00:33.731Z,101611.36
2018-08-17T22:03:08.411Z,101612.97
2018-08-17T22:05:44.166Z,101611.55
2018-08-17T22:08:14.524Z,101611.67
2018-08-17T22:10:43.935Z,101611.67
2018-08-17T22:13:25.309Z,101616.81
2018-08-17T22:15:57.471Z,101617.88
2018-08-17T22:18:27.078Z,101625.05
2018-08-17T22:20:57.981Z,101622.67
2018-08-17T22:23:31.730Z,101619.13
2018-08-17T22:26:02.238Z,101621.20
2018-08-17T22:28:34.365Z,101622.97
2018-08-17T22:31:26.776Z,101625.16
2018-08-17T22:33:57.267Z,101619.91
2018-08-17T22:36:29.252Z,101627.31
2018-08-17T22:39:00.613Z,101627.70
2018-08-17T22:41:31.968Z,101632.83
2018-08-17T22:44:02.787Z,101638.89
2018-08-17T22:46:34.327Z,101633.97
2018-08-17T22:49:07.514Z,101629.57
2018-08-17T22:51:40.591Z,101642.61
2018-08-17T22:54:19.605Z,101641.20
2018-08-17T22:56:55.571Z,101649.20
2018-08-17T22:59:26.769Z,101646.12
2018-08-17T23:01:57.382Z,101646.38
2018-08-17T23:04:37.900Z,101647.22
2018-08-17T23:07:24.677Z,101640.29
2018-08-17T23:10:03.364Z,101645.20
2018-08-17T23:12:39.631Z,101657.42
2018-08-17T23:15:15.782Z,101655.77
2018-08-17T23:17:49.530Z,101661.73
2018-08-17T23:20:25.859Z,101661.63
2018-08-17T23:22:58.058Z,101658.28
2018-08-17T23:25:28.872Z,101659.44
2018-08-17T23:27:58.385Z,101658.01
2018-08-17T23:30:28.704Z,101654.83
2018-08-17T23:32:58.622Z,101655.05
2018-08-17T23:35:28.603Z,101661.11
2018-08-17T23:37:58.288Z,101653.70
2018-08-17T23:40:28.232Z,101655.75
2018-08-17T23:43:01.023Z,101655.39
2018-08-17T23:45:31.026Z,101516.36
2018-08-17T23:48:00.332Z,101662.31
2018-08-17T23:50:30.206Z,101664.52
2018-08-17T23:53:01.131Z,101657.95
2018-08-17T23:55:31.397Z,101657.64
2018-08-17T23:58:01.724Z,101655.48
